sensor_id;sensor_type;location;lat;lon;timestamp;P1;durP1;ratioP1;P2;durP2;ratioP2
77016;SDS011;65949;53.132;17.930;2023-04-24T00:01:53;18.20;;;10.70;;
77016;SDS011;65949;53.132;17.930;2023-04-24T00:04:19;18.30;;;11.40;;
77016;SDS011;65949;53.132;17.930;2023-04-24T00:06:46;20.50;;;12.10;;
77016;SDS011;65949;53.132;17.930;2023-04-24T00:09:15;18.80;;;12.20;;
77016;SDS011;65949;53.132;17.930;2023-04-24T00:11:42;17.70;;;11.80;;
77016;SDS011;65949;53.132;17.930;2023-04-24T00:14:09;18.40;;;12.10;;
77016;SDS011;65949;53.132;17.930;2023-04-24T00:16:35;19.50;;;11.90;;
77016;SDS011;65949;53.132;17.930;2023-04-24T00:19:02;20.40;;;11.70;;
77016;SDS011;65949;53.132;17.930;2023-04-24T00:21:28;21.50;;;12.30;;
77016;SDS011;65949;53.132;17.930;2023-04-24T00:23:56;21.10;;;13.30;;
77016;SDS011;65949;53.132;17.930;2023-04-24T00:26:22;19.90;;;12.40;;
77016;SDS011;65949;53.132;17.930;2023-04-24T00:28:49;19.90;;;12.40;;
77016;SDS011;65949;53.132;17.930;2023-04-24T00:31:16;20.90;;;13.30;;
77016;SDS011;65949;53.132;17.930;2023-04-24T00:33:42;25.40;;;15.30;;
77016;SDS011;65949;53.132;17.930;2023-04-24T00:36:09;37.80;;;18.90;;
77016;SDS011;65949;53.132;17.930;2023-04-24T00:38:35;29.60;;;17.00;;
77016;SDS011;65949;53.132;17.930;2023-04-24T00:41:03;25.90;;;14.80;;
77016;SDS011;65949;53.132;17.930;2023-04-24T00:43:30;22.10;;;13.80;;
77016;SDS011;65949;53.132;17.930;2023-04-24T00:45:57;27.20;;;13.50;;
77016;SDS011;65949;53.132;17.930;2023-04-24T00:48:23;22.20;;;13.80;;
77016;SDS011;65949;53.132;17.930;2023-04-24T00:50:51;21.60;;;12.90;;
77016;SDS011;65949;53.132;17.930;2023-04-24T00:53:17;23.90;;;13.40;;
77016;SDS011;65949;53.132;17.930;2023-04-24T00:55:44;22.60;;;13.50;;
77016;SDS011;65949;53.132;17.930;2023-04-24T00:58:11;19.70;;;13.30;;
77016;SDS011;65949;53.132;17.930;2023-04-24T01:00:38;19.40;;;12.00;;
77016;SDS011;65949;53.132;17.930;2023-04-24T01:03:06;22.00;;;14.20;;
77016;SDS011;65949;53.132;17.930;2023-04-24T01:05:33;23.50;;;13.00;;
77016;SDS011;65949;53.132;17.930;2023-04-24T01:08:00;22.10;;;13.20;;
77016;SDS011;65949;53.132;17.930;2023-04-24T01:10:28;19.90;;;12.80;;
77016;SDS011;65949;53.132;17.930;2023-04-24T01:12:58;21.70;;;13.30;;
77016;SDS011;65949;53.132;17.930;2023-04-24T01:15:25;22.40;;;13.20;;
77016;SDS011;65949;53.132;17.930;2023-04-24T01:17:52;21.60;;;13.80;;
77016;SDS011;65949;53.132;17.930;2023-04-24T01:20:21;24.00;;;14.30;;
77016;SDS011;65949;53.132;17.930;2023-04-24T01:22:48;22.20;;;12.80;;
77016;SDS011;65949;53.132;17.930;2023-04-24T01:25:15;25.90;;;13.80;;
77016;SDS011;65949;53.132;17.930;2023-04-24T01:27:42;22.30;;;13.30;;
77016;SDS011;65949;53.132;17.930;2023-04-24T01:30:09;24.10;;;13.70;;
77016;SDS011;65949;53.132;17.930;2023-04-24T01:32:36;23.80;;;14.00;;
77016;SDS011;65949;53.132;17.930;2023-04-24T01:35:04;23.90;;;13.60;;
77016;SDS011;65949;53.132;17.930;2023-04-24T01:37:31;23.60;;;14.10;;
77016;SDS011;65949;53.132;17.930;2023-04-24T01:39:59;21.30;;;13.10;;
77016;SDS011;65949;53.132;17.930;2023-04-24T01:42:26;20.00;;;12.70;;
77016;SDS011;65949;53.132;17.930;2023-04-24T01:44:53;23.10;;;14.00;;
77016;SDS011;65949;53.132;17.930;2023-04-24T01:47:20;22.20;;;13.20;;
77016;SDS011;65949;53.132;17.930;2023-04-24T01:49:47;18.60;;;13.10;;
77016;SDS011;65949;53.132;17.930;2023-04-24T01:52:14;22.40;;;13.60;;
77016;SDS011;65949;53.132;17.930;2023-04-24T01:54:41;23.80;;;13.70;;
77016;SDS011;65949;53.132;17.930;2023-04-24T01:57:07;23.90;;;14.70;;
77016;SDS011;65949;53.132;17.930;2023-04-24T01:59:34;25.10;;;15.60;;
77016;SDS011;65949;53.132;17.930;2023-04-24T02:02:03;24.50;;;15.40;;
77016;SDS011;65949;53.132;17.930;2023-04-24T02:04:29;24.10;;;15.50;;
77016;SDS011;65949;53.132;17.930;2023-04-24T02:06:57;22.00;;;14.80;;
77016;SDS011;65949;53.132;17.930;2023-04-24T02:09:24;23.70;;;15.70;;
77016;SDS011;65949;53.132;17.930;2023-04-24T02:11:51;21.70;;;14.40;;
77016;SDS011;65949;53.132;17.930;2023-04-24T02:14:18;22.20;;;14.30;;
77016;SDS011;65949;53.132;17.930;2023-04-24T02:16:44;23.30;;;15.30;;
77016;SDS011;65949;53.132;17.930;2023-04-24T02:19:12;21.30;;;14.80;;
77016;SDS011;65949;53.132;17.930;2023-04-24T02:21:38;22.20;;;14.60;;
77016;SDS011;65949;53.132;17.930;2023-04-24T02:24:05;22.90;;;14.90;;
77016;SDS011;65949;53.132;17.930;2023-04-24T02:26:31;31.40;;;18.60;;
77016;SDS011;65949;53.132;17.930;2023-04-24T02:28:59;36.20;;;20.90;;
77016;SDS011;65949;53.132;17.930;2023-04-24T02:31:26;31.10;;;18.70;;
77016;SDS011;65949;53.132;17.930;2023-04-24T02:33:53;27.90;;;17.60;;
77016;SDS011;65949;53.132;17.930;2023-04-24T02:36:20;26.90;;;17.00;;
77016;SDS011;65949;53.132;17.930;2023-04-24T02:38:48;23.80;;;15.00;;
77016;SDS011;65949;53.132;17.930;2023-04-24T02:41:15;24.00;;;15.20;;
77016;SDS011;65949;53.132;17.930;2023-04-24T02:43:42;25.80;;;16.10;;
77016;SDS011;65949;53.132;17.930;2023-04-24T02:46:09;24.00;;;15.00;;
77016;SDS011;65949;53.132;17.930;2023-04-24T02:48:36;21.80;;;14.90;;
77016;SDS011;65949;53.132;17.930;2023-04-24T02:51:02;30.70;;;17.70;;
77016;SDS011;65949;53.132;17.930;2023-04-24T02:53:30;25.30;;;16.20;;
77016;SDS011;65949;53.132;17.930;2023-04-24T02:55:57;23.90;;;15.20;;
77016;SDS011;65949;53.132;17.930;2023-04-24T02:58:24;22.40;;;14.50;;
77016;SDS011;65949;53.132;17.930;2023-04-24T03:00:54;22.30;;;14.40;;
77016;SDS011;65949;53.132;17.930;2023-04-24T03:03:24;24.80;;;14.90;;
77016;SDS011;65949;53.132;17.930;2023-04-24T03:05:51;26.40;;;15.50;;
77016;SDS011;65949;53.132;17.930;2023-04-24T03:08:18;26.30;;;16.10;;
77016;SDS011;65949;53.132;17.930;2023-04-24T03:10:45;24.10;;;16.30;;
77016;SDS011;65949;53.132;17.930;2023-04-24T03:13:12;24.10;;;15.40;;
77016;SDS011;65949;53.132;17.930;2023-04-24T03:15:38;24.60;;;15.60;;
77016;SDS011;65949;53.132;17.930;2023-04-24T03:18:05;23.90;;;14.10;;
77016;SDS011;65949;53.132;17.930;2023-04-24T03:20:31;22.40;;;14.30;;
77016;SDS011;65949;53.132;17.930;2023-04-24T03:22:58;22.50;;;14.40;;
77016;SDS011;65949;53.132;17.930;2023-04-24T03:25:25;23.50;;;14.00;;
77016;SDS011;65949;53.132;17.930;2023-04-24T03:27:52;22.20;;;13.50;;
77016;SDS011;65949;53.132;17.930;2023-04-24T03:30:29;22.80;;;13.10;;
77016;SDS011;65949;53.132;17.930;2023-04-24T03:32:58;22.60;;;14.00;;
77016;SDS011;65949;53.132;17.930;2023-04-24T03:35:28;19.90;;;12.00;;
77016;SDS011;65949;53.132;17.930;2023-04-24T03:37:55;21.30;;;13.40;;
77016;SDS011;65949;53.132;17.930;2023-04-24T03:40:48;24.20;;;13.70;;
77016;SDS011;65949;53.132;17.930;2023-04-24T03:43:25;20.90;;;12.70;;
77016;SDS011;65949;53.132;17.930;2023-04-24T03:45:53;20.40;;;13.10;;
77016;SDS011;65949;53.132;17.930;2023-04-24T03:48:20;21.20;;;12.70;;
77016;SDS011;65949;53.132;17.930;2023-04-24T03:50:47;22.40;;;13.60;;
77016;SDS011;65949;53.132;17.930;2023-04-24T03:53:13;27.20;;;17.10;;
77016;SDS011;65949;53.132;17.930;2023-04-24T03:55:41;33.60;;;19.90;;
77016;SDS011;65949;53.132;17.930;2023-04-24T03:58:09;34.80;;;20.60;;
77016;SDS011;65949;53.132;17.930;2023-04-24T04:00:35;29.10;;;17.40;;
77016;SDS011;65949;53.132;17.930;2023-04-24T04:03:42;23.20;;;14.30;;
77016;SDS011;65949;53.132;17.930;2023-04-24T04:06:09;27.00;;;17.50;;
77016;SDS011;65949;53.132;17.930;2023-04-24T04:08:38;26.20;;;16.90;;
77016;SDS011;65949;53.132;17.930;2023-04-24T04:11:04;24.20;;;16.50;;
77016;SDS011;65949;53.132;17.930;2023-04-24T04:13:31;28.50;;;16.10;;
77016;SDS011;65949;53.132;17.930;2023-04-24T04:15:58;23.30;;;15.20;;
77016;SDS011;65949;53.132;17.930;2023-04-24T04:18:25;23.10;;;14.80;;
77016;SDS011;65949;53.132;17.930;2023-04-24T04:20:51;25.70;;;15.30;;
77016;SDS011;65949;53.132;17.930;2023-04-24T04:23:18;25.00;;;16.00;;
77016;SDS011;65949;53.132;17.930;2023-04-24T04:26:05;26.20;;;15.50;;
77016;SDS011;65949;53.132;17.930;2023-04-24T04:28:53;29.10;;;16.70;;
77016;SDS011;65949;53.132;17.930;2023-04-24T04:31:20;24.70;;;15.70;;
77016;SDS011;65949;53.132;17.930;2023-04-24T04:33:47;26.00;;;16.40;;
77016;SDS011;65949;53.132;17.930;2023-04-24T04:36:14;26.50;;;17.10;;
77016;SDS011;65949;53.132;17.930;2023-04-24T04:38:44;27.20;;;17.10;;
77016;SDS011;65949;53.132;17.930;2023-04-24T04:41:31;26.20;;;16.60;;
77016;SDS011;65949;53.132;17.930;2023-04-24T04:43:58;26.50;;;16.80;;
77016;SDS011;65949;53.132;17.930;2023-04-24T04:46:25;27.10;;;16.90;;
77016;SDS011;65949;53.132;17.930;2023-04-24T04:49:06;59.30;;;23.50;;
77016;SDS011;65949;53.132;17.930;2023-04-24T04:51:35;43.60;;;22.00;;
77016;SDS011;65949;53.132;17.930;2023-04-24T04:54:02;31.60;;;17.40;;
77016;SDS011;65949;53.132;17.930;2023-04-24T04:56:29;30.70;;;19.20;;
77016;SDS011;65949;53.132;17.930;2023-04-24T04:58:56;29.30;;;18.30;;
77016;SDS011;65949;53.132;17.930;2023-04-24T05:01:23;29.30;;;18.30;;
77016;SDS011;65949;53.132;17.930;2023-04-24T05:03:50;25.10;;;16.80;;
77016;SDS011;65949;53.132;17.930;2023-04-24T05:06:17;26.50;;;16.70;;
77016;SDS011;65949;53.132;17.930;2023-04-24T05:08:44;25.30;;;15.30;;
77016;SDS011;65949;53.132;17.930;2023-04-24T05:11:31;25.70;;;15.70;;
77016;SDS011;65949;53.132;17.930;2023-04-24T05:13:57;26.10;;;16.40;;
77016;SDS011;65949;53.132;17.930;2023-04-24T05:16:32;22.90;;;14.60;;
77016;SDS011;65949;53.132;17.930;2023-04-24T05:18:59;24.10;;;14.80;;
77016;SDS011;65949;53.132;17.930;2023-04-24T05:21:30;27.00;;;16.00;;
77016;SDS011;65949;53.132;17.930;2023-04-24T05:23:57;24.70;;;15.50;;
77016;SDS011;65949;53.132;17.930;2023-04-24T05:26:35;25.20;;;16.80;;
77016;SDS011;65949;53.132;17.930;2023-04-24T05:29:02;28.90;;;18.70;;
77016;SDS011;65949;53.132;17.930;2023-04-24T05:31:29;24.80;;;17.40;;
77016;SDS011;65949;53.132;17.930;2023-04-24T05:33:56;24.00;;;15.30;;
77016;SDS011;65949;53.132;17.930;2023-04-24T05:36:23;20.20;;;14.20;;
77016;SDS011;65949;53.132;17.930;2023-04-24T05:38:49;20.90;;;14.10;;
77016;SDS011;65949;53.132;17.930;2023-04-24T05:41:16;19.80;;;13.50;;
77016;SDS011;65949;53.132;17.930;2023-04-24T05:43:43;25.50;;;13.90;;
77016;SDS011;65949;53.132;17.930;2023-04-24T05:46:10;18.30;;;11.90;;
77016;SDS011;65949;53.132;17.930;2023-04-24T05:48:39;18.70;;;12.10;;
77016;SDS011;65949;53.132;17.930;2023-04-24T05:51:05;20.10;;;12.50;;
77016;SDS011;65949;53.132;17.930;2023-04-24T05:53:32;21.50;;;13.00;;
77016;SDS011;65949;53.132;17.930;2023-04-24T05:55:59;17.00;;;11.50;;
77016;SDS011;65949;53.132;17.930;2023-04-24T05:58:26;19.40;;;11.80;;
77016;SDS011;65949;53.132;17.930;2023-04-24T06:00:54;19.60;;;12.10;;
77016;SDS011;65949;53.132;17.930;2023-04-24T06:03:21;22.70;;;13.90;;
77016;SDS011;65949;53.132;17.930;2023-04-24T06:05:49;27.20;;;14.80;;
77016;SDS011;65949;53.132;17.930;2023-04-24T06:08:17;26.60;;;14.70;;
77016;SDS011;65949;53.132;17.930;2023-04-24T06:10:44;22.20;;;14.10;;
77016;SDS011;65949;53.132;17.930;2023-04-24T06:13:11;21.80;;;13.20;;
77016;SDS011;65949;53.132;17.930;2023-04-24T06:15:40;22.40;;;13.10;;
77016;SDS011;65949;53.132;17.930;2023-04-24T06:18:10;21.20;;;13.20;;
77016;SDS011;65949;53.132;17.930;2023-04-24T06:20:37;17.90;;;12.90;;
77016;SDS011;65949;53.132;17.930;2023-04-24T06:23:03;19.50;;;12.00;;
77016;SDS011;65949;53.132;17.930;2023-04-24T06:25:30;19.30;;;12.00;;
77016;SDS011;65949;53.132;17.930;2023-04-24T06:27:56;19.10;;;12.30;;
77016;SDS011;65949;53.132;17.930;2023-04-24T06:30:23;19.60;;;12.90;;
77016;SDS011;65949;53.132;17.930;2023-04-24T06:32:50;18.40;;;11.80;;
77016;SDS011;65949;53.132;17.930;2023-04-24T06:35:17;20.60;;;12.80;;
77016;SDS011;65949;53.132;17.930;2023-04-24T06:37:44;20.50;;;12.10;;
77016;SDS011;65949;53.132;17.930;2023-04-24T06:40:10;18.90;;;11.80;;
77016;SDS011;65949;53.132;17.930;2023-04-24T06:42:37;19.30;;;13.00;;
77016;SDS011;65949;53.132;17.930;2023-04-24T06:45:07;32.50;;;14.40;;
77016;SDS011;65949;53.132;17.930;2023-04-24T06:47:33;26.90;;;14.70;;
77016;SDS011;65949;53.132;17.930;2023-04-24T06:50:00;27.80;;;13.50;;
77016;SDS011;65949;53.132;17.930;2023-04-24T06:52:27;29.10;;;14.20;;
77016;SDS011;65949;53.132;17.930;2023-04-24T06:54:59;40.20;;;16.60;;
77016;SDS011;65949;53.132;17.930;2023-04-24T06:57:27;34.80;;;15.10;;
77016;SDS011;65949;53.132;17.930;2023-04-24T06:59:54;31.90;;;14.70;;
77016;SDS011;65949;53.132;17.930;2023-04-24T07:02:20;27.80;;;13.70;;
77016;SDS011;65949;53.132;17.930;2023-04-24T07:04:47;44.10;;;17.50;;
77016;SDS011;65949;53.132;17.930;2023-04-24T07:07:14;37.40;;;15.80;;
77016;SDS011;65949;53.132;17.930;2023-04-24T07:09:41;34.10;;;15.90;;
77016;SDS011;65949;53.132;17.930;2023-04-24T07:12:08;25.20;;;11.90;;
77016;SDS011;65949;53.132;17.930;2023-04-24T07:14:36;29.00;;;13.80;;
77016;SDS011;65949;53.132;17.930;2023-04-24T07:17:04;25.50;;;12.50;;
77016;SDS011;65949;53.132;17.930;2023-04-24T07:19:33;18.50;;;10.40;;
77016;SDS011;65949;53.132;17.930;2023-04-24T07:22:01;22.70;;;11.60;;
77016;SDS011;65949;53.132;17.930;2023-04-24T07:24:30;14.50;;;8.90;;
77016;SDS011;65949;53.132;17.930;2023-04-24T07:26:58;14.30;;;8.30;;
77016;SDS011;65949;53.132;17.930;2023-04-24T07:29:27;17.80;;;10.00;;
77016;SDS011;65949;53.132;17.930;2023-04-24T07:31:53;29.30;;;12.70;;
77016;SDS011;65949;53.132;17.930;2023-04-24T07:34:20;15.40;;;9.40;;
77016;SDS011;65949;53.132;17.930;2023-04-24T07:36:46;13.60;;;8.20;;
77016;SDS011;65949;53.132;17.930;2023-04-24T07:39:13;23.00;;;11.40;;
77016;SDS011;65949;53.132;17.930;2023-04-24T07:41:40;14.70;;;8.60;;
77016;SDS011;65949;53.132;17.930;2023-04-24T07:44:06;14.00;;;8.40;;
77016;SDS011;65949;53.132;17.930;2023-04-24T07:46:33;11.80;;;7.20;;
77016;SDS011;65949;53.132;17.930;2023-04-24T07:49:00;12.20;;;7.30;;
77016;SDS011;65949;53.132;17.930;2023-04-24T07:51:27;11.10;;;7.40;;
77016;SDS011;65949;53.132;17.930;2023-04-24T07:53:54;12.60;;;7.40;;
77016;SDS011;65949;53.132;17.930;2023-04-24T07:56:21;11.60;;;7.60;;
77016;SDS011;65949;53.132;17.930;2023-04-24T07:58:48;11.70;;;6.80;;
77016;SDS011;65949;53.132;17.930;2023-04-24T08:01:14;11.10;;;6.60;;
77016;SDS011;65949;53.132;17.930;2023-04-24T08:03:41;12.20;;;7.80;;
77016;SDS011;65949;53.132;17.930;2023-04-24T08:06:08;11.90;;;6.70;;
77016;SDS011;65949;53.132;17.930;2023-04-24T08:08:35;11.80;;;7.00;;
77016;SDS011;65949;53.132;17.930;2023-04-24T08:11:01;10.30;;;6.50;;
77016;SDS011;65949;53.132;17.930;2023-04-24T08:13:28;11.70;;;6.70;;
77016;SDS011;65949;53.132;17.930;2023-04-24T08:15:55;11.20;;;6.40;;
77016;SDS011;65949;53.132;17.930;2023-04-24T08:18:23;9.40;;;5.90;;
77016;SDS011;65949;53.132;17.930;2023-04-24T08:20:49;10.80;;;6.30;;
77016;SDS011;65949;53.132;17.930;2023-04-24T08:23:16;10.10;;;6.30;;
77016;SDS011;65949;53.132;17.930;2023-04-24T08:25:42;10.20;;;5.30;;
77016;SDS011;65949;53.132;17.930;2023-04-24T08:28:09;9.00;;;5.50;;
77016;SDS011;65949;53.132;17.930;2023-04-24T08:30:37;8.80;;;5.90;;
77016;SDS011;65949;53.132;17.930;2023-04-24T08:33:04;15.90;;;12.90;;
77016;SDS011;65949;53.132;17.930;2023-04-24T08:35:31;48.60;;;25.30;;
77016;SDS011;65949;53.132;17.930;2023-04-24T08:37:58;19.30;;;10.90;;
77016;SDS011;65949;53.132;17.930;2023-04-24T08:40:27;23.90;;;21.40;;
77016;SDS011;65949;53.132;17.930;2023-04-24T08:42:57;15.60;;;12.10;;
77016;SDS011;65949;53.132;17.930;2023-04-24T08:45:25;9.90;;;6.50;;
77016;SDS011;65949;53.132;17.930;2023-04-24T08:47:53;9.40;;;5.60;;
77016;SDS011;65949;53.132;17.930;2023-04-24T08:50:21;14.30;;;9.50;;
77016;SDS011;65949;53.132;17.930;2023-04-24T08:52:52;12.00;;;8.50;;
77016;SDS011;65949;53.132;17.930;2023-04-24T08:55:20;12.40;;;8.10;;
77016;SDS011;65949;53.132;17.930;2023-04-24T08:57:51;10.10;;;6.00;;
77016;SDS011;65949;53.132;17.930;2023-04-24T09:00:19;9.40;;;5.70;;
77016;SDS011;65949;53.132;17.930;2023-04-24T09:02:52;10.00;;;6.20;;
77016;SDS011;65949;53.132;17.930;2023-04-24T09:05:20;10.80;;;5.70;;
77016;SDS011;65949;53.132;17.930;2023-04-24T09:07:49;10.10;;;6.80;;
77016;SDS011;65949;53.132;17.930;2023-04-24T09:10:20;11.50;;;7.10;;
77016;SDS011;65949;53.132;17.930;2023-04-24T09:12:48;10.40;;;6.20;;
77016;SDS011;65949;53.132;17.930;2023-04-24T09:15:18;12.20;;;7.10;;
77016;SDS011;65949;53.132;17.930;2023-04-24T09:17:46;11.80;;;6.20;;
77016;SDS011;65949;53.132;17.930;2023-04-24T09:20:13;10.70;;;6.30;;
77016;SDS011;65949;53.132;17.930;2023-04-24T09:22:41;10.80;;;6.20;;
77016;SDS011;65949;53.132;17.930;2023-04-24T09:25:09;11.80;;;6.60;;
77016;SDS011;65949;53.132;17.930;2023-04-24T09:27:42;10.00;;;6.60;;
77016;SDS011;65949;53.132;17.930;2023-04-24T09:30:11;8.90;;;5.50;;
77016;SDS011;65949;53.132;17.930;2023-04-24T09:32:38;10.10;;;6.50;;
77016;SDS011;65949;53.132;17.930;2023-04-24T09:37:38;9.40;;;6.60;;
77016;SDS011;65949;53.132;17.930;2023-04-24T09:42:45;12.80;;;6.30;;
77016;SDS011;65949;53.132;17.930;2023-04-24T09:45:17;16.80;;;15.00;;
77016;SDS011;65949;53.132;17.930;2023-04-24T09:47:44;10.80;;;6.90;;
77016;SDS011;65949;53.132;17.930;2023-04-24T09:50:20;9.40;;;6.10;;
77016;SDS011;65949;53.132;17.930;2023-04-24T09:52:57;9.80;;;5.80;;
77016;SDS011;65949;53.132;17.930;2023-04-24T09:55:25;9.60;;;5.70;;
77016;SDS011;65949;53.132;17.930;2023-04-24T09:57:54;9.20;;;6.10;;
77016;SDS011;65949;53.132;17.930;2023-04-24T10:00:26;12.60;;;5.80;;
77016;SDS011;65949;53.132;17.930;2023-04-24T10:05:29;10.40;;;6.60;;
77016;SDS011;65949;53.132;17.930;2023-04-24T10:08:19;9.80;;;5.70;;
77016;SDS011;65949;53.132;17.930;2023-04-24T10:10:45;10.60;;;6.90;;
77016;SDS011;65949;53.132;17.930;2023-04-24T10:13:13;11.40;;;5.80;;
77016;SDS011;65949;53.132;17.930;2023-04-24T10:15:41;9.80;;;5.90;;
77016;SDS011;65949;53.132;17.930;2023-04-24T10:18:08;15.20;;;9.70;;
77016;SDS011;65949;53.132;17.930;2023-04-24T10:20:36;12.50;;;6.40;;
77016;SDS011;65949;53.132;17.930;2023-04-24T10:23:05;9.50;;;6.10;;
77016;SDS011;65949;53.132;17.930;2023-04-24T10:25:33;13.60;;;12.00;;
77016;SDS011;65949;53.132;17.930;2023-04-24T10:28:01;10.80;;;6.90;;
77016;SDS011;65949;53.132;17.930;2023-04-24T10:30:30;13.20;;;8.60;;
77016;SDS011;65949;53.132;17.930;2023-04-24T10:33:03;10.30;;;7.10;;
77016;SDS011;65949;53.132;17.930;2023-04-24T10:35:31;11.40;;;7.50;;
77016;SDS011;65949;53.132;17.930;2023-04-24T10:38:06;12.00;;;6.50;;
77016;SDS011;65949;53.132;17.930;2023-04-24T10:40:35;9.70;;;6.10;;
77016;SDS011;65949;53.132;17.930;2023-04-24T10:43:04;9.50;;;5.70;;
77016;SDS011;65949;53.132;17.930;2023-04-24T10:45:38;9.30;;;6.50;;
77016;SDS011;65949;53.132;17.930;2023-04-24T10:48:06;9.90;;;6.70;;
77016;SDS011;65949;53.132;17.930;2023-04-24T10:53:12;8.60;;;6.00;;
77016;SDS011;65949;53.132;17.930;2023-04-24T10:55:43;8.50;;;6.10;;
77016;SDS011;65949;53.132;17.930;2023-04-24T10:58:13;9.30;;;6.50;;
77016;SDS011;65949;53.132;17.930;2023-04-24T11:00:43;9.60;;;7.20;;
77016;SDS011;65949;53.132;17.930;2023-04-24T11:03:50;16.80;;;15.70;;
77016;SDS011;65949;53.132;17.930;2023-04-24T11:06:08;9.50;;;6.50;;
77016;SDS011;65949;53.132;17.930;2023-04-24T11:08:38;9.50;;;7.40;;
77016;SDS011;65949;53.132;17.930;2023-04-24T11:11:12;14.10;;;8.60;;
77016;SDS011;65949;53.132;17.930;2023-04-24T11:18:56;10.40;;;5.70;;
77016;SDS011;65949;53.132;17.930;2023-04-24T11:21:31;12.00;;;5.90;;
77016;SDS011;65949;53.132;17.930;2023-04-24T11:27:01;10.50;;;6.50;;
77016;SDS011;65949;53.132;17.930;2023-04-24T11:35:02;9.70;;;7.00;;
77016;SDS011;65949;53.132;17.930;2023-04-24T11:37:54;9.90;;;6.20;;
77016;SDS011;65949;53.132;17.930;2023-04-24T11:40:21;9.60;;;6.30;;
77016;SDS011;65949;53.132;17.930;2023-04-24T11:42:50;16.60;;;8.00;;
77016;SDS011;65949;53.132;17.930;2023-04-24T11:45:21;9.20;;;6.50;;
77016;SDS011;65949;53.132;17.930;2023-04-24T11:47:49;8.90;;;5.60;;
77016;SDS011;65949;53.132;17.930;2023-04-24T11:50:17;11.40;;;6.50;;
77016;SDS011;65949;53.132;17.930;2023-04-24T11:52:46;11.40;;;6.70;;
77016;SDS011;65949;53.132;17.930;2023-04-24T11:57:48;11.40;;;7.00;;
77016;SDS011;65949;53.132;17.930;2023-04-24T12:00:17;11.00;;;6.30;;
77016;SDS011;65949;53.132;17.930;2023-04-24T12:02:44;9.70;;;7.10;;
77016;SDS011;65949;53.132;17.930;2023-04-24T12:05:21;10.20;;;7.50;;
77016;SDS011;65949;53.132;17.930;2023-04-24T12:07:49;10.80;;;7.80;;
77016;SDS011;65949;53.132;17.930;2023-04-24T12:10:19;10.10;;;7.40;;
77016;SDS011;65949;53.132;17.930;2023-04-24T12:12:47;10.40;;;7.20;;
77016;SDS011;65949;53.132;17.930;2023-04-24T12:15:17;9.00;;;6.60;;
77016;SDS011;65949;53.132;17.930;2023-04-24T12:17:44;11.50;;;6.80;;
77016;SDS011;65949;53.132;17.930;2023-04-24T12:20:12;10.00;;;6.40;;
77016;SDS011;65949;53.132;17.930;2023-04-24T12:22:44;9.20;;;5.50;;
77016;SDS011;65949;53.132;17.930;2023-04-24T12:25:13;10.80;;;6.60;;
77016;SDS011;65949;53.132;17.930;2023-04-24T12:27:41;9.00;;;6.30;;
77016;SDS011;65949;53.132;17.930;2023-04-24T12:30:16;10.40;;;6.70;;
77016;SDS011;65949;53.132;17.930;2023-04-24T12:32:44;10.00;;;7.20;;
77016;SDS011;65949;53.132;17.930;2023-04-24T12:35:22;10.00;;;7.30;;
77016;SDS011;65949;53.132;17.930;2023-04-24T12:37:50;12.60;;;8.20;;
77016;SDS011;65949;53.132;17.930;2023-04-24T12:40:17;11.50;;;8.20;;
77016;SDS011;65949;53.132;17.930;2023-04-24T12:42:48;10.60;;;7.50;;
77016;SDS011;65949;53.132;17.930;2023-04-24T12:45:16;12.40;;;8.10;;
77016;SDS011;65949;53.132;17.930;2023-04-24T12:47:45;11.70;;;8.70;;
77016;SDS011;65949;53.132;17.930;2023-04-24T12:50:13;13.00;;;8.30;;
77016;SDS011;65949;53.132;17.930;2023-04-24T12:52:41;10.80;;;7.70;;
77016;SDS011;65949;53.132;17.930;2023-04-24T12:55:09;10.40;;;7.00;;
77016;SDS011;65949;53.132;17.930;2023-04-24T12:57:38;10.20;;;7.90;;
77016;SDS011;65949;53.132;17.930;2023-04-24T13:00:06;11.60;;;8.10;;
77016;SDS011;65949;53.132;17.930;2023-04-24T13:02:34;10.70;;;7.00;;
77016;SDS011;65949;53.132;17.930;2023-04-24T13:05:01;10.30;;;7.10;;
77016;SDS011;65949;53.132;17.930;2023-04-24T13:07:28;9.40;;;6.60;;
77016;SDS011;65949;53.132;17.930;2023-04-24T13:09:55;11.40;;;6.80;;
77016;SDS011;65949;53.132;17.930;2023-04-24T13:12:23;10.00;;;7.00;;
77016;SDS011;65949;53.132;17.930;2023-04-24T13:14:51;11.40;;;7.40;;
77016;SDS011;65949;53.132;17.930;2023-04-24T13:17:19;9.70;;;6.80;;
77016;SDS011;65949;53.132;17.930;2023-04-24T13:19:45;9.40;;;6.70;;
77016;SDS011;65949;53.132;17.930;2023-04-24T13:22:12;9.10;;;6.80;;
77016;SDS011;65949;53.132;17.930;2023-04-24T13:24:39;9.30;;;6.20;;
77016;SDS011;65949;53.132;17.930;2023-04-24T13:27:07;8.70;;;6.20;;
77016;SDS011;65949;53.132;17.930;2023-04-24T13:29:35;10.50;;;6.60;;
77016;SDS011;65949;53.132;17.930;2023-04-24T13:32:03;10.00;;;6.20;;
77016;SDS011;65949;53.132;17.930;2023-04-24T13:34:30;13.90;;;7.00;;
77016;SDS011;65949;53.132;17.930;2023-04-24T13:36:57;8.70;;;5.10;;
77016;SDS011;65949;53.132;17.930;2023-04-24T13:39:25;9.60;;;5.70;;
77016;SDS011;65949;53.132;17.930;2023-04-24T13:41:53;9.50;;;4.60;;
77016;SDS011;65949;53.132;17.930;2023-04-24T13:44:20;7.80;;;4.20;;
77016;SDS011;65949;53.132;17.930;2023-04-24T13:46:49;7.80;;;5.20;;
77016;SDS011;65949;53.132;17.930;2023-04-24T13:49:18;9.90;;;6.20;;
77016;SDS011;65949;53.132;17.930;2023-04-24T13:51:45;8.60;;;5.80;;
77016;SDS011;65949;53.132;17.930;2023-04-24T13:54:12;11.60;;;5.20;;
77016;SDS011;65949;53.132;17.930;2023-04-24T13:56:39;8.30;;;5.40;;
77016;SDS011;65949;53.132;17.930;2023-04-24T13:59:07;10.50;;;5.80;;
77016;SDS011;65949;53.132;17.930;2023-04-24T14:01:34;9.30;;;6.00;;
77016;SDS011;65949;53.132;17.930;2023-04-24T14:04:01;8.90;;;6.10;;
77016;SDS011;65949;53.132;17.930;2023-04-24T14:06:27;9.50;;;6.60;;
77016;SDS011;65949;53.132;17.930;2023-04-24T14:08:54;9.10;;;6.50;;
77016;SDS011;65949;53.132;17.930;2023-04-24T14:11:21;10.90;;;7.10;;
77016;SDS011;65949;53.132;17.930;2023-04-24T14:13:48;10.00;;;6.20;;
77016;SDS011;65949;53.132;17.930;2023-04-24T14:16:15;8.30;;;5.80;;
77016;SDS011;65949;53.132;17.930;2023-04-24T14:18:41;11.50;;;6.30;;
77016;SDS011;65949;53.132;17.930;2023-04-24T14:21:08;9.20;;;5.80;;
77016;SDS011;65949;53.132;17.930;2023-04-24T14:23:35;10.30;;;5.70;;
77016;SDS011;65949;53.132;17.930;2023-04-24T14:26:01;9.20;;;5.70;;
77016;SDS011;65949;53.132;17.930;2023-04-24T14:28:28;8.80;;;5.30;;
77016;SDS011;65949;53.132;17.930;2023-04-24T14:30:55;8.00;;;5.50;;
77016;SDS011;65949;53.132;17.930;2023-04-24T14:33:21;10.70;;;5.40;;
77016;SDS011;65949;53.132;17.930;2023-04-24T14:35:48;10.20;;;5.40;;
77016;SDS011;65949;53.132;17.930;2023-04-24T14:38:15;7.90;;;5.50;;
77016;SDS011;65949;53.132;17.930;2023-04-24T14:40:42;7.70;;;5.00;;
77016;SDS011;65949;53.132;17.930;2023-04-24T14:43:08;7.60;;;4.50;;
77016;SDS011;65949;53.132;17.930;2023-04-24T14:45:36;8.70;;;4.80;;
77016;SDS011;65949;53.132;17.930;2023-04-24T14:48:04;7.50;;;4.70;;
77016;SDS011;65949;53.132;17.930;2023-04-24T14:50:30;8.10;;;4.10;;